sensor_id;sensor_type;location;lat;lon;timestamp;P1;durP1;ratioP1;P2;durP2;ratioP2
52508;SDS011;38420;53.150;6.370;2023-03-01T00:00:14;37.17;;;20.23;;
52508;SDS011;38420;53.150;6.370;2023-03-01T00:02:40;29.73;;;18.02;;
52508;SDS011;38420;53.150;6.370;2023-03-01T00:05:06;34.10;;;19.85;;
52508;SDS011;38420;53.150;6.370;2023-03-01T00:07:32;33.47;;;19.02;;
52508;SDS011;38420;53.150;6.370;2023-03-01T00:09:58;30.02;;;18.13;;
52508;SDS011;38420;53.150;6.370;2023-03-01T00:12:24;32.72;;;20.27;;
52508;SDS011;38420;53.150;6.370;2023-03-01T00:14:49;35.97;;;20.83;;
52508;SDS011;38420;53.150;6.370;2023-03-01T00:17:15;37.63;;;20.75;;
52508;SDS011;38420;53.150;6.370;2023-03-01T00:19:40;34.25;;;20.30;;
52508;SDS011;38420;53.150;6.370;2023-03-01T00:22:06;34.80;;;19.13;;
52508;SDS011;38420;53.150;6.370;2023-03-01T00:24:32;31.45;;;18.20;;
52508;SDS011;38420;53.150;6.370;2023-03-01T00:26:57;30.35;;;17.70;;
52508;SDS011;38420;53.150;6.370;2023-03-01T00:29:23;34.20;;;20.08;;
52508;SDS011;38420;53.150;6.370;2023-03-01T00:31:49;33.70;;;20.02;;
52508;SDS011;38420;53.150;6.370;2023-03-01T00:34:15;30.20;;;19.00;;
52508;SDS011;38420;53.150;6.370;2023-03-01T00:36:41;34.90;;;19.15;;
52508;SDS011;38420;53.150;6.370;2023-03-01T00:39:09;34.03;;;19.42;;
52508;SDS011;38420;53.150;6.370;2023-03-01T00:41:36;30.95;;;18.48;;
52508;SDS011;38420;53.150;6.370;2023-03-01T00:44:02;40.17;;;21.27;;
52508;SDS011;38420;53.150;6.370;2023-03-01T00:46:28;31.00;;;18.25;;
52508;SDS011;38420;53.150;6.370;2023-03-01T00:48:55;30.98;;;18.60;;
52508;SDS011;38420;53.150;6.370;2023-03-01T00:51:25;30.80;;;17.85;;
52508;SDS011;38420;53.150;6.370;2023-03-01T00:53:55;29.33;;;17.67;;
52508;SDS011;38420;53.150;6.370;2023-03-01T00:56:24;31.15;;;17.58;;
52508;SDS011;38420;53.150;6.370;2023-03-01T00:58:51;26.70;;;17.10;;
52508;SDS011;38420;53.150;6.370;2023-03-01T01:01:18;36.63;;;19.50;;
52508;SDS011;38420;53.150;6.370;2023-03-01T01:06:15;32.35;;;18.95;;
52508;SDS011;38420;53.150;6.370;2023-03-01T01:08:42;30.57;;;19.30;;
52508;SDS011;38420;53.150;6.370;2023-03-01T01:11:11;32.90;;;18.83;;
52508;SDS011;38420;53.150;6.370;2023-03-01T01:13:38;33.67;;;20.27;;
52508;SDS011;38420;53.150;6.370;2023-03-01T01:16:05;34.28;;;19.75;;
52508;SDS011;38420;53.150;6.370;2023-03-01T01:18:30;35.60;;;20.13;;
52508;SDS011;38420;53.150;6.370;2023-03-01T01:20:56;33.30;;;19.13;;
52508;SDS011;38420;53.150;6.370;2023-03-01T01:23:22;31.92;;;19.83;;
52508;SDS011;38420;53.150;6.370;2023-03-01T01:25:47;34.63;;;20.55;;
52508;SDS011;38420;53.150;6.370;2023-03-01T01:28:13;38.15;;;21.33;;
52508;SDS011;38420;53.150;6.370;2023-03-01T01:30:39;37.53;;;22.65;;
52508;SDS011;38420;53.150;6.370;2023-03-01T01:33:04;43.50;;;23.58;;
52508;SDS011;38420;53.150;6.370;2023-03-01T01:35:30;46.40;;;24.73;;
52508;SDS011;38420;53.150;6.370;2023-03-01T01:37:55;79.35;;;26.88;;
52508;SDS011;38420;53.150;6.370;2023-03-01T01:40:21;128.05;;;26.20;;
52508;SDS011;38420;53.150;6.370;2023-03-01T01:42:46;112.78;;;25.55;;
52508;SDS011;38420;53.150;6.370;2023-03-01T01:47:57;58.75;;;22.10;;
52508;SDS011;38420;53.150;6.370;2023-03-01T01:50:28;61.47;;;23.17;;
52508;SDS011;38420;53.150;6.370;2023-03-01T01:53:03;97.30;;;23.33;;
52508;SDS011;38420;53.150;6.370;2023-03-01T01:55:34;95.45;;;25.42;;
52508;SDS011;38420;53.150;6.370;2023-03-01T01:58:05;59.00;;;20.42;;
52508;SDS011;38420;53.150;6.370;2023-03-01T02:00:35;113.30;;;20.63;;
52508;SDS011;38420;53.150;6.370;2023-03-01T02:03:10;90.45;;;21.67;;
52508;SDS011;38420;53.150;6.370;2023-03-01T02:05:57;99.72;;;21.75;;
52508;SDS011;38420;53.150;6.370;2023-03-01T02:08:30;146.80;;;23.95;;
52508;SDS011;38420;53.150;6.370;2023-03-01T02:11:00;51.10;;;21.42;;
52508;SDS011;38420;53.150;6.370;2023-03-01T02:13:26;34.22;;;19.15;;
52508;SDS011;38420;53.150;6.370;2023-03-01T02:15:52;50.25;;;20.58;;
52508;SDS011;38420;53.150;6.370;2023-03-01T02:18:18;79.72;;;21.25;;
52508;SDS011;38420;53.150;6.370;2023-03-01T02:23:23;83.13;;;22.98;;
52508;SDS011;38420;53.150;6.370;2023-03-01T02:30:58;96.65;;;23.58;;
52508;SDS011;38420;53.150;6.370;2023-03-01T02:33:42;251.23;;;29.77;;
52508;SDS011;38420;53.150;6.370;2023-03-01T02:36:12;349.75;;;38.72;;
52508;SDS011;38420;53.150;6.370;2023-03-01T02:38:42;239.63;;;29.30;;
52508;SDS011;38420;53.150;6.370;2023-03-01T02:41:08;252.93;;;28.85;;
52508;SDS011;38420;53.150;6.370;2023-03-01T02:43:38;281.58;;;32.58;;
52508;SDS011;38420;53.150;6.370;2023-03-01T02:46:13;168.98;;;26.67;;
52508;SDS011;38420;53.150;6.370;2023-03-01T02:48:48;193.38;;;28.50;;
52508;SDS011;38420;53.150;6.370;2023-03-01T02:56:44;166.20;;;25.75;;
52508;SDS011;38420;53.150;6.370;2023-03-01T02:59:14;109.20;;;25.15;;
52508;SDS011;38420;53.150;6.370;2023-03-01T03:01:43;109.50;;;24.20;;
52508;SDS011;38420;53.150;6.370;2023-03-01T03:04:13;127.47;;;23.75;;
52508;SDS011;38420;53.150;6.370;2023-03-01T03:06:42;211.05;;;28.27;;
52508;SDS011;38420;53.150;6.370;2023-03-01T03:09:12;165.95;;;26.63;;
52508;SDS011;38420;53.150;6.370;2023-03-01T03:11:38;173.75;;;28.98;;
52508;SDS011;38420;53.150;6.370;2023-03-01T03:14:06;85.60;;;23.88;;
52508;SDS011;38420;53.150;6.370;2023-03-01T03:16:39;72.22;;;22.15;;
52508;SDS011;38420;53.150;6.370;2023-03-01T03:19:12;89.15;;;24.33;;
52508;SDS011;38420;53.150;6.370;2023-03-01T03:21:37;78.88;;;22.25;;
52508;SDS011;38420;53.150;6.370;2023-03-01T03:24:03;86.97;;;23.60;;
52508;SDS011;38420;53.150;6.370;2023-03-01T03:26:30;120.60;;;24.30;;
52508;SDS011;38420;53.150;6.370;2023-03-01T03:28:56;83.95;;;24.02;;
52508;SDS011;38420;53.150;6.370;2023-03-01T03:31:22;61.95;;;23.30;;
52508;SDS011;38420;53.150;6.370;2023-03-01T03:33:47;63.30;;;20.38;;
52508;SDS011;38420;53.150;6.370;2023-03-01T03:36:17;79.45;;;23.33;;
52508;SDS011;38420;53.150;6.370;2023-03-01T03:38:44;58.38;;;23.27;;
52508;SDS011;38420;53.150;6.370;2023-03-01T03:41:14;80.32;;;24.58;;
52508;SDS011;38420;53.150;6.370;2023-03-01T03:43:40;52.38;;;22.75;;
52508;SDS011;38420;53.150;6.370;2023-03-01T03:46:07;37.38;;;19.85;;
52508;SDS011;38420;53.150;6.370;2023-03-01T03:48:35;52.67;;;22.48;;
52508;SDS011;38420;53.150;6.370;2023-03-01T03:51:02;43.47;;;21.42;;
52508;SDS011;38420;53.150;6.370;2023-03-01T03:53:32;52.65;;;21.38;;
52508;SDS011;38420;53.150;6.370;2023-03-01T03:55:58;46.85;;;21.73;;
52508;SDS011;38420;53.150;6.370;2023-03-01T03:58:24;94.55;;;25.42;;
52508;SDS011;38420;53.150;6.370;2023-03-01T04:00:51;51.33;;;22.13;;
52508;SDS011;38420;53.150;6.370;2023-03-01T04:03:18;42.42;;;23.02;;
52508;SDS011;38420;53.150;6.370;2023-03-01T04:05:45;134.73;;;26.70;;
52508;SDS011;38420;53.150;6.370;2023-03-01T04:08:12;182.23;;;31.75;;
52508;SDS011;38420;53.150;6.370;2023-03-01T04:13:05;113.05;;;25.42;;
52508;SDS011;38420;53.150;6.370;2023-03-01T04:15:33;122.93;;;27.58;;
52508;SDS011;38420;53.150;6.370;2023-03-01T04:17:59;144.23;;;27.45;;
52508;SDS011;38420;53.150;6.370;2023-03-01T04:20:26;103.03;;;26.02;;
52508;SDS011;38420;53.150;6.370;2023-03-01T04:23:05;58.22;;;23.55;;
52508;SDS011;38420;53.150;6.370;2023-03-01T04:25:54;63.78;;;25.08;;
52508;SDS011;38420;53.150;6.370;2023-03-01T04:30:50;42.00;;;21.90;;
52508;SDS011;38420;53.150;6.370;2023-03-01T04:33:16;42.05;;;21.90;;
52508;SDS011;38420;53.150;6.370;2023-03-01T04:35:42;35.45;;;19.13;;
52508;SDS011;38420;53.150;6.370;2023-03-01T04:38:08;36.00;;;20.77;;
52508;SDS011;38420;53.150;6.370;2023-03-01T04:40:34;52.88;;;23.95;;
52508;SDS011;38420;53.150;6.370;2023-03-01T04:43:00;58.40;;;24.55;;
52508;SDS011;38420;53.150;6.370;2023-03-01T04:45:26;54.53;;;24.73;;
52508;SDS011;38420;53.150;6.370;2023-03-01T04:47:52;57.00;;;24.85;;
52508;SDS011;38420;53.150;6.370;2023-03-01T04:50:18;54.42;;;26.23;;
52508;SDS011;38420;53.150;6.370;2023-03-01T04:52:48;55.00;;;26.20;;
52508;SDS011;38420;53.150;6.370;2023-03-01T04:55:14;67.65;;;25.40;;
52508;SDS011;38420;53.150;6.370;2023-03-01T04:57:40;65.85;;;25.50;;
52508;SDS011;38420;53.150;6.370;2023-03-01T05:00:07;55.20;;;24.75;;
52508;SDS011;38420;53.150;6.370;2023-03-01T05:02:48;51.13;;;24.08;;
52508;SDS011;38420;53.150;6.370;2023-03-01T05:05:19;53.13;;;23.45;;
52508;SDS011;38420;53.150;6.370;2023-03-01T05:07:51;55.42;;;25.40;;
52508;SDS011;38420;53.150;6.370;2023-03-01T05:10:17;53.20;;;24.27;;
52508;SDS011;38420;53.150;6.370;2023-03-01T05:12:43;62.35;;;26.02;;
52508;SDS011;38420;53.150;6.370;2023-03-01T05:15:09;55.85;;;25.08;;
52508;SDS011;38420;53.150;6.370;2023-03-01T05:17:35;46.72;;;22.60;;
52508;SDS011;38420;53.150;6.370;2023-03-01T05:20:01;35.28;;;19.45;;
52508;SDS011;38420;53.150;6.370;2023-03-01T05:22:31;38.22;;;20.88;;
52508;SDS011;38420;53.150;6.370;2023-03-01T05:24:56;39.13;;;19.80;;
52508;SDS011;38420;53.150;6.370;2023-03-01T05:27:22;35.17;;;17.88;;
52508;SDS011;38420;53.150;6.370;2023-03-01T05:29:48;33.70;;;18.02;;
52508;SDS011;38420;53.150;6.370;2023-03-01T05:32:13;35.42;;;18.70;;
52508;SDS011;38420;53.150;6.370;2023-03-01T05:34:40;35.03;;;17.63;;
52508;SDS011;38420;53.150;6.370;2023-03-01T05:37:06;31.77;;;17.77;;
52508;SDS011;38420;53.150;6.370;2023-03-01T05:39:32;32.13;;;18.75;;
52508;SDS011;38420;53.150;6.370;2023-03-01T05:41:59;32.42;;;18.65;;
52508;SDS011;38420;53.150;6.370;2023-03-01T05:44:26;32.90;;;17.83;;
52508;SDS011;38420;53.150;6.370;2023-03-01T05:46:53;37.20;;;18.83;;
52508;SDS011;38420;53.150;6.370;2023-03-01T05:49:19;32.83;;;17.92;;
52508;SDS011;38420;53.150;6.370;2023-03-01T05:51:48;30.98;;;17.08;;
52508;SDS011;38420;53.150;6.370;2023-03-01T05:54:15;32.20;;;17.42;;
52508;SDS011;38420;53.150;6.370;2023-03-01T05:56:41;31.60;;;17.38;;
52508;SDS011;38420;53.150;6.370;2023-03-01T05:59:06;28.25;;;16.80;;
52508;SDS011;38420;53.150;6.370;2023-03-01T06:01:33;32.17;;;17.13;;
52508;SDS011;38420;53.150;6.370;2023-03-01T06:03:59;30.52;;;16.80;;
52508;SDS011;38420;53.150;6.370;2023-03-01T06:06:25;33.20;;;17.33;;
52508;SDS011;38420;53.150;6.370;2023-03-01T06:08:52;29.35;;;16.98;;
52508;SDS011;38420;53.150;6.370;2023-03-01T06:11:18;30.75;;;17.10;;
52508;SDS011;38420;53.150;6.370;2023-03-01T06:13:44;34.55;;;19.05;;
52508;SDS011;38420;53.150;6.370;2023-03-01T06:16:11;37.53;;;20.05;;
52508;SDS011;38420;53.150;6.370;2023-03-01T06:18:37;43.72;;;21.33;;
52508;SDS011;38420;53.150;6.370;2023-03-01T06:21:04;44.80;;;22.05;;
52508;SDS011;38420;53.150;6.370;2023-03-01T06:23:30;39.70;;;21.23;;
52508;SDS011;38420;53.150;6.370;2023-03-01T06:25:59;41.35;;;22.95;;
52508;SDS011;38420;53.150;6.370;2023-03-01T06:28:25;47.58;;;23.98;;
52508;SDS011;38420;53.150;6.370;2023-03-01T06:30:51;41.40;;;20.38;;
52508;SDS011;38420;53.150;6.370;2023-03-01T06:33:17;42.63;;;21.02;;
52508;SDS011;38420;53.150;6.370;2023-03-01T06:35:45;38.72;;;20.92;;
52508;SDS011;38420;53.150;6.370;2023-03-01T06:38:11;37.85;;;20.80;;
52508;SDS011;38420;53.150;6.370;2023-03-01T06:40:39;39.58;;;21.13;;
52508;SDS011;38420;53.150;6.370;2023-03-01T06:43:05;41.45;;;21.45;;
52508;SDS011;38420;53.150;6.370;2023-03-01T06:45:32;40.45;;;21.42;;
52508;SDS011;38420;53.150;6.370;2023-03-01T06:48:05;39.33;;;20.63;;
52508;SDS011;38420;53.150;6.370;2023-03-01T06:50:32;40.17;;;21.67;;
52508;SDS011;38420;53.150;6.370;2023-03-01T06:52:58;35.72;;;20.67;;
52508;SDS011;38420;53.150;6.370;2023-03-01T06:55:24;41.88;;;21.50;;
52508;SDS011;38420;53.150;6.370;2023-03-01T06:57:57;42.47;;;21.90;;
52508;SDS011;38420;53.150;6.370;2023-03-01T07:00:24;38.60;;;20.45;;
52508;SDS011;38420;53.150;6.370;2023-03-01T07:02:50;39.28;;;21.80;;
52508;SDS011;38420;53.150;6.370;2023-03-01T07:05:16;41.75;;;20.83;;
52508;SDS011;38420;53.150;6.370;2023-03-01T07:07:42;41.70;;;22.38;;
52508;SDS011;38420;53.150;6.370;2023-03-01T07:10:08;36.00;;;20.80;;
52508;SDS011;38420;53.150;6.370;2023-03-01T07:12:34;40.58;;;22.33;;
52508;SDS011;38420;53.150;6.370;2023-03-01T07:15:00;39.58;;;20.83;;
52508;SDS011;38420;53.150;6.370;2023-03-01T07:17:25;42.47;;;21.38;;
52508;SDS011;38420;53.150;6.370;2023-03-01T07:19:51;41.15;;;21.92;;
52508;SDS011;38420;53.150;6.370;2023-03-01T07:22:16;37.28;;;20.98;;
52508;SDS011;38420;53.150;6.370;2023-03-01T07:24:42;37.45;;;22.70;;
52508;SDS011;38420;53.150;6.370;2023-03-01T07:27:08;36.85;;;21.58;;
52508;SDS011;38420;53.150;6.370;2023-03-01T07:29:34;42.17;;;22.90;;
52508;SDS011;38420;53.150;6.370;2023-03-01T07:32:01;43.20;;;23.13;;
52508;SDS011;38420;53.150;6.370;2023-03-01T07:34:28;47.90;;;25.10;;
52508;SDS011;38420;53.150;6.370;2023-03-01T07:36:54;55.75;;;29.38;;
52508;SDS011;38420;53.150;6.370;2023-03-01T07:39:19;48.13;;;28.15;;
52508;SDS011;38420;53.150;6.370;2023-03-01T07:41:45;50.85;;;27.88;;
52508;SDS011;38420;53.150;6.370;2023-03-01T07:44:10;51.63;;;27.52;;
52508;SDS011;38420;53.150;6.370;2023-03-01T07:46:36;47.22;;;25.55;;
52508;SDS011;38420;53.150;6.370;2023-03-01T07:49:02;46.13;;;25.48;;
52508;SDS011;38420;53.150;6.370;2023-03-01T07:51:27;40.75;;;23.88;;
52508;SDS011;38420;53.150;6.370;2023-03-01T07:53:53;39.33;;;23.27;;
52508;SDS011;38420;53.150;6.370;2023-03-01T07:56:19;40.83;;;23.40;;
52508;SDS011;38420;53.150;6.370;2023-03-01T07:58:46;42.20;;;24.35;;
52508;SDS011;38420;53.150;6.370;2023-03-01T08:01:13;38.60;;;22.58;;
52508;SDS011;38420;53.150;6.370;2023-03-01T08:03:40;33.42;;;20.90;;
52508;SDS011;38420;53.150;6.370;2023-03-01T08:06:08;35.08;;;22.38;;
52508;SDS011;38420;53.150;6.370;2023-03-01T08:08:36;36.00;;;22.02;;
52508;SDS011;38420;53.150;6.370;2023-03-01T08:11:03;45.45;;;24.92;;
52508;SDS011;38420;53.150;6.370;2023-03-01T08:13:30;42.15;;;23.48;;
52508;SDS011;38420;53.150;6.370;2023-03-01T08:16:03;40.33;;;25.17;;
52508;SDS011;38420;53.150;6.370;2023-03-01T08:18:31;48.28;;;26.40;;
52508;SDS011;38420;53.150;6.370;2023-03-01T08:21:11;47.17;;;26.85;;
52508;SDS011;38420;53.150;6.370;2023-03-01T08:23:40;49.20;;;27.73;;
52508;SDS011;38420;53.150;6.370;2023-03-01T08:26:10;47.95;;;29.15;;
52508;SDS011;38420;53.150;6.370;2023-03-01T08:28:38;48.70;;;27.77;;
52508;SDS011;38420;53.150;6.370;2023-03-01T08:33:47;49.47;;;28.33;;
52508;SDS011;38420;53.150;6.370;2023-03-01T08:36:20;52.97;;;30.55;;
52508;SDS011;38420;53.150;6.370;2023-03-01T08:38:46;50.92;;;28.30;;
52508;SDS011;38420;53.150;6.370;2023-03-01T08:41:13;51.90;;;30.63;;
52508;SDS011;38420;53.150;6.370;2023-03-01T08:43:39;53.25;;;30.42;;
52508;SDS011;38420;53.150;6.370;2023-03-01T08:46:05;60.60;;;33.67;;
52508;SDS011;38420;53.150;6.370;2023-03-01T08:48:31;57.20;;;32.90;;
52508;SDS011;38420;53.150;6.370;2023-03-01T08:50:56;61.25;;;32.70;;
52508;SDS011;38420;53.150;6.370;2023-03-01T08:53:22;58.90;;;33.22;;
52508;SDS011;38420;53.150;6.370;2023-03-01T08:55:48;60.25;;;32.95;;
52508;SDS011;38420;53.150;6.370;2023-03-01T08:58:13;64.15;;;35.45;;
52508;SDS011;38420;53.150;6.370;2023-03-01T09:00:39;61.05;;;34.17;;
52508;SDS011;38420;53.150;6.370;2023-03-01T09:03:05;53.75;;;31.80;;
52508;SDS011;38420;53.150;6.370;2023-03-01T09:05:31;43.28;;;27.83;;
52508;SDS011;38420;53.150;6.370;2023-03-01T09:07:58;43.47;;;27.80;;
52508;SDS011;38420;53.150;6.370;2023-03-01T09:10:23;34.55;;;23.75;;
52508;SDS011;38420;53.150;6.370;2023-03-01T09:12:49;35.25;;;23.90;;
52508;SDS011;38420;53.150;6.370;2023-03-01T09:15:14;37.33;;;23.02;;
52508;SDS011;38420;53.150;6.370;2023-03-01T09:17:40;35.47;;;23.85;;
52508;SDS011;38420;53.150;6.370;2023-03-01T09:20:06;32.97;;;23.65;;
52508;SDS011;38420;53.150;6.370;2023-03-01T09:22:34;34.65;;;23.23;;
52508;SDS011;38420;53.150;6.370;2023-03-01T09:25:00;32.42;;;21.80;;
52508;SDS011;38420;53.150;6.370;2023-03-01T09:27:26;29.25;;;21.98;;
52508;SDS011;38420;53.150;6.370;2023-03-01T09:29:51;33.75;;;22.40;;
52508;SDS011;38420;53.150;6.370;2023-03-01T09:32:17;36.75;;;24.17;;
52508;SDS011;38420;53.150;6.370;2023-03-01T09:34:43;31.40;;;21.83;;
52508;SDS011;38420;53.150;6.370;2023-03-01T09:37:28;33.03;;;23.40;;
52508;SDS011;38420;53.150;6.370;2023-03-01T09:39:54;31.23;;;21.77;;
52508;SDS011;38420;53.150;6.370;2023-03-01T09:42:20;30.13;;;21.42;;
52508;SDS011;38420;53.150;6.370;2023-03-01T09:47:27;31.20;;;21.88;;
52508;SDS011;38420;53.150;6.370;2023-03-01T09:50:01;30.40;;;20.17;;
52508;SDS011;38420;53.150;6.370;2023-03-01T09:52:36;29.00;;;20.20;;
52508;SDS011;38420;53.150;6.370;2023-03-01T09:55:37;27.17;;;19.95;;
52508;SDS011;38420;53.150;6.370;2023-03-01T10:00:57;24.30;;;17.58;;
52508;SDS011;38420;53.150;6.370;2023-03-01T10:03:30;26.23;;;17.33;;
52508;SDS011;38420;53.150;6.370;2023-03-01T10:06:25;23.00;;;15.88;;
52508;SDS011;38420;53.150;6.370;2023-03-01T10:09:00;26.63;;;16.38;;
52508;SDS011;38420;53.150;6.370;2023-03-01T10:11:41;19.83;;;14.57;;
52508;SDS011;38420;53.150;6.370;2023-03-01T10:14:29;17.40;;;12.85;;
52508;SDS011;38420;53.150;6.370;2023-03-01T10:19:49;18.33;;;12.45;;
52508;SDS011;38420;53.150;6.370;2023-03-01T10:22:16;21.10;;;12.43;;
52508;SDS011;38420;53.150;6.370;2023-03-01T10:24:46;18.30;;;13.13;;
52508;SDS011;38420;53.150;6.370;2023-03-01T10:27:21;17.95;;;12.50;;
52508;SDS011;38420;53.150;6.370;2023-03-01T10:29:53;17.98;;;13.00;;
52508;SDS011;38420;53.150;6.370;2023-03-01T10:32:32;19.20;;;14.10;;
52508;SDS011;38420;53.150;6.370;2023-03-01T10:34:59;21.63;;;14.85;;
52508;SDS011;38420;53.150;6.370;2023-03-01T10:37:24;22.70;;;15.88;;
52508;SDS011;38420;53.150;6.370;2023-03-01T10:42:25;23.90;;;16.40;;
52508;SDS011;38420;53.150;6.370;2023-03-01T10:44:53;24.02;;;16.50;;
52508;SDS011;38420;53.150;6.370;2023-03-01T10:47:20;21.02;;;14.63;;
52508;SDS011;38420;53.150;6.370;2023-03-01T10:50:04;22.58;;;15.93;;
52508;SDS011;38420;53.150;6.370;2023-03-01T10:52:42;21.27;;;16.20;;
52508;SDS011;38420;53.150;6.370;2023-03-01T11:00:32;21.70;;;15.73;;
52508;SDS011;38420;53.150;6.370;2023-03-01T11:03:12;20.10;;;13.52;;
52508;SDS011;38420;53.150;6.370;2023-03-01T11:05:53;21.67;;;14.70;;
52508;SDS011;38420;53.150;6.370;2023-03-01T11:11:22;27.35;;;16.92;;
52508;SDS011;38420;53.150;6.370;2023-03-01T11:13:52;25.75;;;18.60;;
52508;SDS011;38420;53.150;6.370;2023-03-01T11:16:22;26.67;;;17.92;;
52508;SDS011;38420;53.150;6.370;2023-03-01T11:19:27;28.15;;;17.67;;
52508;SDS011;38420;53.150;6.370;2023-03-01T11:29:50;19.90;;;15.18;;
52508;SDS011;38420;53.150;6.370;2023-03-01T11:32:47;23.30;;;14.65;;
52508;SDS011;38420;53.150;6.370;2023-03-01T11:35:24;22.45;;;14.45;;
52508;SDS011;38420;53.150;6.370;2023-03-01T11:45:44;20.45;;;14.32;;
52508;SDS011;38420;53.150;6.370;2023-03-01T11:51:13;20.65;;;13.88;;
52508;SDS011;38420;53.150;6.370;2023-03-01T11:54:04;22.10;;;14.35;;
52508;SDS011;38420;53.150;6.370;2023-03-01T11:56:45;19.67;;;12.35;;
52508;SDS011;38420;53.150;6.370;2023-03-01T12:05:07;21.35;;;14.98;;
52508;SDS011;38420;53.150;6.370;2023-03-01T12:07:59;19.95;;;13.70;;
52508;SDS011;38420;53.150;6.370;2023-03-01T12:10:41;20.92;;;14.45;;
52508;SDS011;38420;53.150;6.370;2023-03-01T12:13:44;22.92;;;15.65;;
52508;SDS011;38420;53.150;6.370;2023-03-01T12:16:34;19.67;;;13.33;;
52508;SDS011;38420;53.150;6.370;2023-03-01T12:19:37;20.55;;;13.50;;
52508;SDS011;38420;53.150;6.370;2023-03-01T12:22:30;18.33;;;12.43;;
52508;SDS011;38420;53.150;6.370;2023-03-01T12:30:18;17.75;;;12.45;;
52508;SDS011;38420;53.150;6.370;2023-03-01T12:33:22;16.48;;;11.45;;
52508;SDS011;38420;53.150;6.370;2023-03-01T12:36:10;21.00;;;12.70;;
52508;SDS011;38420;53.150;6.370;2023-03-01T12:38:42;21.70;;;14.43;;
52508;SDS011;38420;53.150;6.370;2023-03-01T12:43:53;19.17;;;12.90;;
52508;SDS011;38420;53.150;6.370;2023-03-01T12:46:57;20.27;;;13.57;;
52508;SDS011;38420;53.150;6.370;2023-03-01T12:49:33;18.83;;;13.57;;
52508;SDS011;38420;53.150;6.370;2023-03-01T12:52:09;18.40;;;12.50;;
52508;SDS011;38420;53.150;6.370;2023-03-01T12:54:43;19.45;;;12.82;;
52508;SDS011;38420;53.150;6.370;2023-03-01T12:58:15;18.65;;;13.85;;
52508;SDS011;38420;53.150;6.370;2023-03-01T13:01:11;19.00;;;13.93;;
52508;SDS011;38420;53.150;6.370;2023-03-01T13:03:27;23.42;;;14.38;;
52508;SDS011;38420;53.150;6.370;2023-03-01T13:08:47;21.58;;;14.20;;
52508;SDS011;38420;53.150;6.370;2023-03-01T13:11:23;21.77;;;14.52;;
52508;SDS011;38420;53.150;6.370;2023-03-01T13:13:49;20.38;;;13.63;;
52508;SDS011;38420;53.150;6.370;2023-03-01T13:16:58;17.83;;;13.50;;
52508;SDS011;38420;53.150;6.370;2023-03-01T13:21:36;19.05;;;12.90;;
52508;SDS011;38420;53.150;6.370;2023-03-01T13:24:02;18.05;;;12.65;;
52508;SDS011;38420;53.150;6.370;2023-03-01T13:26:27;20.38;;;14.38;;
52508;SDS011;38420;53.150;6.370;2023-03-01T13:28:54;19.65;;;13.95;;
52508;SDS011;38420;53.150;6.370;2023-03-01T13:33:54;19.52;;;13.60;;
52508;SDS011;38420;53.150;6.370;2023-03-01T13:44:26;16.98;;;12.13;;
52508;SDS011;38420;53.150;6.370;2023-03-01T13:49:42;15.15;;;11.00;;
52508;SDS011;38420;53.150;6.370;2023-03-01T13:52:24;16.95;;;11.73;;
52508;SDS011;38420;53.150;6.370;2023-03-01T13:55:00;17.05;;;12.02;;
52508;SDS011;38420;53.150;6.370;2023-03-01T13:57:29;18.45;;;12.02;;
52508;SDS011;38420;53.150;6.370;2023-03-01T14:00:01;19.35;;;12.80;;
52508;SDS011;38420;53.150;6.370;2023-03-01T14:02:29;20.48;;;11.60;;
52508;SDS011;38420;53.150;6.370;2023-03-01T14:04:55;17.80;;;12.38;;
52508;SDS011;38420;53.150;6.370;2023-03-01T14:07:25;16.83;;;12.77;;
52508;SDS011;38420;53.150;6.370;2023-03-01T14:09:56;19.52;;;13.88;;
52508;SDS011;38420;53.150;6.370;2023-03-01T14:18:18;16.92;;;12.50;;
52508;SDS011;38420;53.150;6.370;2023-03-01T14:20:51;19.33;;;13.27;;
52508;SDS011;38420;53.150;6.370;2023-03-01T14:23:18;21.33;;;13.45;;
52508;SDS011;38420;53.150;6.370;2023-03-01T14:25:51;20.95;;;13.75;;
52508;SDS011;38420;53.150;6.370;2023-03-01T14:28:29;20.75;;;14.60;;
52508;SDS011;38420;53.150;6.370;2023-03-01T14:30:59;19.10;;;12.93;;
52508;SDS011;38420;53.150;6.370;2023-03-01T14:36:11;17.30;;;11.45;;
52508;SDS011;38420;53.150;6.370;2023-03-01T14:38:39;17.73;;;12.38;;
52508;SDS011;38420;53.150;6.370;2023-03-01T14:41:13;19.42;;;12.15;;
52508;SDS011;38420;53.150;6.370;2023-03-01T14:43:49;18.10;;;12.13;;
52508;SDS011;38420;53.150;6.370;2023-03-01T14:48:57;16.95;;;11.98;;
52508;SDS011;38420;53.150;6.370;2023-03-01T14:51:28;17.92;;;12.60;;
52508;SDS011;38420;53.150;6.370;2023-03-01T14:53:54;17.75;;;12.45;;
52508;SDS011;38420;53.150;6.370;2023-03-01T14:56:21;18.00;;;12.05;;
52508;SDS011;38420;53.150;6.370;2023-03-01T14:58:46;19.08;;;12.27;;
52508;SDS011;38420;53.150;6.370;2023-03-01T15:01:16;17.52;;;12.77;;
52508;SDS011;38420;53.150;6.370;2023-03-01T15:03:49;18.60;;;12.40;;
52508;SDS011;38420;53.150;6.370;2023-03-01T15:06:16;18.73;;;13.25;;
52508;SDS011;38420;53.150;6.370;2023-03-01T15:08:45;21.08;;;13.45;;
52508;SDS011;38420;53.150;6.370;2023-03-01T15:11:23;19.42;;;12.68;;
52508;SDS011;38420;53.150;6.370;2023-03-01T15:13:53;18.20;;;13.27;;
52508;SDS011;38420;53.150;6.370;2023-03-01T15:16:21;22.05;;;13.50;;
52508;SDS011;38420;53.150;6.370;2023-03-01T15:18:50;20.30;;;13.60;;
52508;SDS011;38420;53.150;6.370;2023-03-01T15:21:22;21.70;;;13.35;;
52508;SDS011;38420;53.150;6.370;2023-03-01T15:23:55;20.88;;;14.43;;
52508;SDS011;38420;53.150;6.370;2023-03-01T15:26:25;20.20;;;13.70;;
52508;SDS011;38420;53.150;6.370;2023-03-01T15:28:54;21.08;;;15.15;;
52508;SDS011;38420;53.150;6.370;2023-03-01T15:31:30;19.88;;;14.00;;
52508;SDS011;38420;53.150;6.370;2023-03-01T15:34:10;22.73;;;13.30;;
52508;SDS011;38420;53.150;6.370;2023-03-01T15:36:51;19.55;;;13.77;;
52508;SDS011;38420;53.150;6.370;2023-03-01T15:44:35;20.00;;;13.70;;
52508;SDS011;38420;53.150;6.370;2023-03-01T15:47:04;18.67;;;13.43;;
52508;SDS011;38420;53.150;6.370;2023-03-01T15:49:47;22.58;;;14.63;;
52508;SDS011;38420;53.150;6.370;2023-03-01T15:52:58;20.95;;;13.70;;
52508;SDS011;38420;53.150;6.370;2023-03-01T15:55:06;21.13;;;13.23;;
52508;SDS011;38420;53.150;6.370;2023-03-01T15:57:43;20.05;;;13.57;;
52508;SDS011;38420;53.150;6.370;2023-03-01T16:00:10;21.10;;;14.30;;
52508;SDS011;38420;53.150;6.370;2023-03-01T16:02:36;19.25;;;13.48;;
52508;SDS011;38420;53.150;6.370;2023-03-01T16:05:03;20.25;;;13.85;;
52508;SDS011;38420;53.150;6.370;2023-03-01T16:07:28;19.75;;;13.45;;
52508;SDS011;38420;53.150;6.370;2023-03-01T16:09:56;21.85;;;14.20;;
52508;SDS011;38420;53.150;6.370;2023-03-01T16:12:21;19.02;;;13.82;;
52508;SDS011;38420;53.150;6.370;2023-03-01T16:14:49;19.83;;;13.80;;
52508;SDS011;38420;53.150;6.370;2023-03-01T16:17:15;18.27;;;13.68;;
52508;SDS011;38420;53.150;6.370;2023-03-01T16:19:41;21.23;;;14.80;;
52508;SDS011;38420;53.150;6.370;2023-03-01T16:22:06;20.80;;;14.55;;
52508;SDS011;38420;53.150;6.370;2023-03-01T16:24:35;20.30;;;13.95;;
52508;SDS011;38420;53.150;6.370;2023-03-01T16:27:01;23.15;;;13.98;;
52508;SDS011;38420;53.150;6.370;2023-03-01T16:29:27;21.02;;;14.57;;